Time;durP1;ratioP1;P1;durP2;ratioP2;P2;SDS_P1;SDS_P2;PMS_P1;PMS_P2;Temp;Humidity;BMP_temperature;BMP_pressure;BME280_temperature;BME280_humidity;BME280_pressure;Samples;Min_cycle;Max_cycle;Signal;HPM_P1;HPM_P2
2022/06/02 00:00:44;;;;;;;12.03;10.90;;;7.50;99.90;;;;;;5017932;28;20464;-68
2022/06/02 00:03:24;;;;;;;13.30;10.23;;;7.60;99.90;;;;;;5018239;28;20492;-68
2022/06/02 00:06:14;;;;;;;11.50;10.30;;;7.50;99.90;;;;;;5018451;28;20869;-68
2022/06/02 00:09:03;;;;;;;12.10;10.17;;;7.50;99.90;;;;;;5018308;28;20897;-68
2022/06/02 00:11:51;;;;;;;11.00;9.43;;;7.50;99.90;;;;;;5018554;28;20759;-68
2022/06/02 00:14:24;;;;;;;12.83;11.47;;;7.50;99.90;;;;;;5018025;28;20488;-68
2022/06/02 00:17:00;;;;;;;12.53;10.77;;;7.50;99.90;;;;;;5018350;28;20780;-68
2022/06/02 00:19:41;;;;;;;11.47;10.27;;;7.50;99.90;;;;;;5017958;28;20558;-68
2022/06/02 00:22:15;;;;;;;11.80;10.63;;;7.40;99.90;;;;;;5017554;28;20495;-68
2022/06/02 00:24:46;;;;;;;11.50;10.33;;;7.40;99.90;;;;;;5017908;28;20971;-68
2022/06/02 00:27:30;;;;;;;11.63;10.50;;;7.40;99.90;;;;;;5018041;28;20923;-68
2022/06/02 00:30:08;;;;;;;11.37;10.10;;;7.40;99.90;;;;;;5017197;28;20775;-68
2022/06/02 00:32:43;;;;;;;11.20;9.83;;;7.30;99.90;;;;;;5017459;28;20459;-68
2022/06/02 00:35:21;;;;;;;11.77;10.43;;;7.30;99.90;;;;;;5017690;28;20944;-68
2022/06/02 00:37:59;;;;;;;10.57;9.47;;;7.30;99.90;;;;;;5017873;28;20475;-68
2022/06/02 00:40:29;;;;;;;11.07;9.97;;;7.20;99.90;;;;;;5016809;28;20499;-68
2022/06/02 00:43:14;;;;;;;11.80;10.60;;;7.20;99.90;;;;;;5017752;28;20528;-68
2022/06/02 00:45:44;;;;;;;13.60;11.60;;;7.20;99.90;;;;;;5017639;28;20446;-68
2022/06/02 00:48:23;;;;;;;12.00;10.80;;;7.20;99.90;;;;;;5017499;28;20821;-68
2022/06/02 00:50:58;;;;;;;11.67;10.47;;;7.10;99.90;;;;;;5017055;28;20460;-68
2022/06/02 00:53:41;;;;;;;12.83;11.17;;;7.10;99.90;;;;;;5017545;28;20522;-68
2022/06/02 00:59:32;;;;;;;12.47;11.17;;;7.00;99.90;;;;;;5017284;28;20831;-68
2022/06/02 01:01:59;;;;;;;11.23;10.03;;;7.10;99.90;;;;;;5016076;28;20795;-68
2022/06/02 01:04:27;;;;;;;12.33;9.53;;;7.00;99.90;;;;;;5017086;28;20910;-68
2022/06/02 01:07:11;;;;;;;11.67;10.47;;;7.00;99.90;;;;;;5017485;28;20897;-68
2022/06/02 01:09:59;;;;;;;12.10;10.80;;;7.00;99.90;;;;;;5017490;28;20812;-67
2022/06/02 01:12:51;;;;;;;13.57;11.47;;;7.10;99.90;;;;;;5012792;28;20546;-68
2022/06/02 01:18:55;;;;;;;23.10;14.50;;;7.20;99.90;;;;;;5016237;28;20923;-67
2022/06/02 01:21:52;;;;;;;15.40;12.10;;;7.20;99.90;;;;;;5016512;28;20516;-67
2022/06/02 01:24:44;;;;;;;14.93;11.63;;;7.20;99.90;;;;;;5008974;28;20504;-67
2022/06/02 01:27:44;;;;;;;20.67;12.60;;;7.20;99.90;;;;;;5015382;28;20509;-67
2022/06/02 01:30:32;;;;;;;31.03;12.13;;;7.20;99.90;;;;;;5009875;28;20862;-67
2022/06/02 01:33:05;;;;;;;43.20;13.03;;;7.10;99.90;;;;;;5015742;28;20475;-67
2022/06/02 01:35:39;;;;;;;24.17;13.60;;;7.10;99.90;;;;;;5016524;28;20464;-67
2022/06/02 01:38:15;;;;;;;41.73;14.40;;;7.10;99.90;;;;;;5016703;28;20530;-67
2022/06/02 01:40:52;;;;;;;15.07;12.20;;;7.10;99.90;;;;;;5017022;28;20555;-67
2022/06/02 01:43:29;;;;;;;14.27;12.77;;;7.10;99.90;;;;;;5016266;28;20549;-67
2022/06/02 01:46:18;;;;;;;62.67;15.40;;;7.10;99.90;;;;;;5016691;28;20522;-67
2022/06/02 01:48:58;;;;;;;52.47;15.60;;;7.20;99.90;;;;;;5016455;28;20473;-67
2022/06/02 01:51:36;;;;;;;95.77;16.43;;;7.20;99.90;;;;;;5017093;28;20884;-67
2022/06/02 01:54:13;;;;;;;42.63;13.10;;;7.20;99.90;;;;;;5015620;28;20460;-67
2022/06/02 01:56:59;;;;;;;27.27;13.80;;;7.10;99.90;;;;;;5016742;28;20554;-67
2022/06/02 01:59:44;;;;;;;17.13;11.33;;;6.90;99.90;;;;;;5016949;28;20506;-67
2022/06/02 02:02:20;;;;;;;16.37;12.87;;;6.90;99.90;;;;;;5016332;28;20586;-67
2022/06/02 02:05:18;;;;;;;16.17;12.73;;;6.90;99.90;;;;;;5018085;28;20924;-67
2022/06/02 02:08:02;;;;;;;19.17;13.37;;;7.00;99.90;;;;;;4995678;28;20546;-67
2022/06/02 02:10:42;;;;;;;82.83;15.07;;;7.00;99.90;;;;;;5020051;28;20463;-67
2022/06/02 02:13:25;;;;;;;53.97;13.97;;;6.90;99.90;;;;;;5020101;28;20464;-67
2022/06/02 02:16:02;;;;;;;13.37;11.97;;;6.80;99.90;;;;;;5020807;28;20463;-67
2022/06/02 02:18:45;;;;;;;14.73;12.77;;;6.80;99.90;;;;;;5020172;28;20507;-67
2022/06/02 02:21:21;;;;;;;13.63;12.23;;;6.60;99.90;;;;;;5019784;28;20487;-67
2022/06/02 02:24:04;;;;;;;14.00;12.53;;;6.50;99.90;;;;;;5019722;28;20480;-67
2022/06/02 02:26:37;;;;;;;14.30;12.80;;;6.60;99.90;;;;;;5020387;28;20495;-67
2022/06/02 02:29:14;;;;;;;17.73;12.93;;;6.50;99.90;;;;;;5019597;28;20464;-67
2022/06/02 02:32:00;;;;;;;14.13;12.63;;;6.50;99.90;;;;;;5020266;28;20736;-67
2022/06/02 02:34:39;;;;;;;18.43;13.13;;;6.40;99.90;;;;;;5019004;28;20806;-67
2022/06/02 02:37:12;;;;;;;16.40;13.97;;;6.40;99.90;;;;;;5019787;28;20502;-67
2022/06/02 02:39:47;;;;;;;19.40;13.33;;;6.40;99.90;;;;;;5019873;28;20463;-67
2022/06/02 02:42:24;;;;;;;27.40;14.33;;;6.50;99.90;;;;;;5019881;28;20959;-67
2022/06/02 02:45:08;;;;;;;16.50;13.70;;;6.50;99.90;;;;;;5019406;28;20469;-67
2022/06/02 02:47:42;;;;;;;41.30;14.87;;;6.60;99.90;;;;;;5020074;28;20562;-67
2022/06/02 02:50:18;;;;;;;20.00;14.10;;;6.60;99.90;;;;;;5018197;28;20471;-67
2022/06/02 02:52:53;;;;;;;34.07;13.20;;;6.60;99.90;;;;;;5019907;28;20869;-67
2022/06/02 02:55:24;;;;;;;56.13;15.47;;;6.60;99.90;;;;;;5019403;28;20491;-67
2022/06/02 02:58:02;;;;;;;14.20;12.27;;;6.70;99.90;;;;;;5020108;28;20555;-67
2022/06/02 03:00:34;;;;;;;39.33;14.40;;;6.70;99.90;;;;;;5019924;28;20463;-67
2022/06/02 03:03:08;;;;;;;54.93;14.57;;;6.70;99.90;;;;;;5019906;28;20495;-67
2022/06/02 03:06:01;;;;;;;16.10;13.30;;;6.70;99.90;;;;;;5018760;28;21320;-67
2022/06/02 03:08:36;;;;;;;59.10;15.47;;;6.70;99.90;;;;;;5000007;28;20505;-67
2022/06/02 03:11:18;;;;;;;54.80;14.70;;;6.70;99.90;;;;;;5011295;28;20545;-67
2022/06/02 03:13:52;;;;;;;98.23;19.07;;;6.60;99.90;;;;;;5019397;28;20459;-67
2022/06/02 03:16:22;;;;;;;15.00;12.73;;;6.60;99.90;;;;;;5018614;28;20835;-67
2022/06/02 03:19:07;;;;;;;185.13;22.20;;;6.60;99.90;;;;;;5019049;28;20944;-67
2022/06/02 03:21:41;;;;;;;33.67;14.53;;;6.60;99.90;;;;;;5019217;28;20474;-67
2022/06/02 03:24:40;;;;;;;36.43;12.00;;;6.50;99.90;;;;;;5018872;28;20558;-67
2022/06/02 03:27:20;;;;;;;26.63;12.80;;;6.50;99.90;;;;;;5018501;28;20506;-67
2022/06/02 03:30:03;;;;;;;46.83;14.47;;;6.50;99.90;;;;;;5019374;28;20504;-67
2022/06/02 03:32:44;;;;;;;50.73;16.17;;;6.40;99.90;;;;;;5018111;28;20487;-67
2022/06/02 03:35:23;;;;;;;52.67;14.80;;;6.40;99.90;;;;;;5018447;28;20523;-67
2022/06/02 03:38:05;;;;;;;56.50;15.17;;;6.30;99.90;;;;;;5018426;28;20491;-67
2022/06/02 03:40:47;;;;;;;66.73;16.17;;;6.50;99.90;;;;;;5018984;28;20844;-67
2022/06/02 03:43:19;;;;;;;44.33;13.80;;;6.40;99.90;;;;;;5018631;28;20525;-67
2022/06/02 03:45:59;;;;;;;33.87;15.07;;;6.30;99.90;;;;;;5018888;28;20500;-67
2022/06/02 03:49:00;;;;;;;27.00;14.63;;;6.40;99.90;;;;;;5017693;28;20550;-67
2022/06/02 03:51:40;;;;;;;48.83;17.00;;;6.50;99.90;;;;;;5017991;28;20467;-67
2022/06/02 03:54:36;;;;;;;51.03;16.57;;;6.60;99.90;;;;;;5018676;28;20909;-67
2022/06/02 03:57:26;;;;;;;59.30;16.70;;;6.50;99.90;;;;;;5018821;28;20529;-67
2022/06/02 04:00:21;;;;;;;24.37;14.23;;;6.50;99.90;;;;;;5017898;28;20441;-67
2022/06/02 04:02:53;;;;;;;18.47;13.90;;;6.50;99.90;;;;;;5005539;28;20502;-67
2022/06/02 04:05:58;;;;;;;20.00;14.90;;;6.50;99.90;;;;;;5018959;28;20443;-67
2022/06/02 04:08:46;;;;;;;43.90;16.00;;;6.50;99.90;;;;;;5018150;28;20798;-67
2022/06/02 04:13:37;;;;;;;22.23;13.53;;;6.60;99.90;;;;;;5018892;28;20468;-67
2022/06/02 04:14:28;;;;;;;28.53;15.13;;;6.60;99.90;;;;;;5018079;28;20546;-67
2022/06/02 04:17:06;;;;;;;55.23;15.17;;;6.50;99.90;;;;;;5018762;28;20558;-67
2022/06/02 04:23:03;;;;;;;14.57;13.10;;;6.30;99.90;;;;;;5018200;28;20741;-67
2022/06/02 04:25:46;;;;;;;19.53;14.30;;;6.30;99.90;;;;;;5018764;28;20468;-67
2022/06/02 04:28:21;;;;;;;19.20;15.53;;;6.40;99.90;;;;;;5018032;28;20980;-67
2022/06/02 04:30:58;;;;;;;16.10;14.50;;;6.50;99.90;;;;;;5017861;28;20525;-67
2022/06/02 04:33:33;;;;;;;16.63;14.83;;;6.50;99.90;;;;;;5017960;28;20586;-67
2022/06/02 04:36:11;;;;;;;18.37;13.90;;;6.50;99.90;;;;;;5015693;28;20510;-67
2022/06/02 04:38:55;;;;;;;15.90;14.10;;;6.60;99.90;;;;;;5017614;28;20750;-67
2022/06/02 04:41:30;;;;;;;16.47;14.67;;;6.70;99.90;;;;;;5021028;28;20533;-67
2022/06/02 04:44:17;;;;;;;17.43;14.03;;;6.80;99.90;;;;;;5023739;28;20494;-67
2022/06/02 04:46:59;;;;;;;17.90;15.50;;;6.90;99.90;;;;;;5009314;28;20831;-66
2022/06/02 04:49:38;;;;;;;22.37;14.23;;;7.00;99.90;;;;;;5023195;28;20460;-67
2022/06/02 04:52:14;;;;;;;24.10;15.67;;;7.20;99.90;;;;;;5027321;28;20470;-67
2022/06/02 04:54:49;;;;;;;31.90;16.90;;;7.30;99.90;;;;;;5035497;28;20554;-67
2022/06/02 04:57:27;;;;;;;29.00;16.00;;;7.40;99.90;;;;;;5026927;28;20781;-67
2022/06/02 05:00:03;;;;;;;32.17;15.40;;;7.50;99.90;;;;;;5032579;28;20763;-66
2022/06/02 05:02:43;;;;;;;21.83;15.37;;;7.50;99.90;;;;;;5027306;28;20621;-66
2022/06/02 05:05:16;;;;;;;34.30;14.90;;;7.60;99.90;;;;;;5017554;28;20518;-66
2022/06/02 05:08:13;;;;;;;18.83;14.93;;;7.60;99.90;;;;;;5016769;28;20559;-66
2022/06/02 05:10:44;;;;;;;16.90;15.10;;;7.70;99.90;;;;;;5002332;28;20546;-67
2022/06/02 05:13:20;;;;;;;17.57;15.80;;;7.80;99.90;;;;;;5017615;28;20493;-67
2022/06/02 05:16:05;;;;;;;17.93;16.13;;;7.80;99.90;;;;;;5017761;28;20442;-67
2022/06/02 05:18:46;;;;;;;17.50;15.67;;;7.90;99.90;;;;;;5017339;28;20467;-67
2022/06/02 05:21:30;;;;;;;21.97;17.43;;;7.90;99.90;;;;;;5015780;28;20826;-67
2022/06/02 05:24:29;;;;;;;20.90;17.87;;;8.00;99.90;;;;;;5009247;28;20485;-63
2022/06/02 05:27:18;;;;;;;24.10;19.17;;;8.10;99.90;;;;;;5027299;28;20463;-63
2022/06/02 05:30:08;;;;;;;22.13;19.17;;;8.20;99.90;;;;;;5035256;28;20471;-63
2022/06/02 05:33:07;;;;;;;23.30;20.57;;;8.40;99.90;;;;;;5005493;28;20527;-63
2022/06/02 05:36:01;;;;;;;24.27;21.17;;;8.60;99.90;;;;;;5029506;28;20559;-63
2022/06/02 05:38:41;;;;;;;25.77;22.77;;;8.80;99.90;;;;;;5036654;28;20503;-63
2022/06/02 05:41:19;;;;;;;23.57;20.67;;;9.00;99.90;;;;;;5031651;28;20442;-63
2022/06/02 05:43:58;;;;;;;27.13;24.10;;;9.20;99.90;;;;;;5034947;28;20577;-63
2022/06/02 05:46:39;;;;;;;25.00;22.30;;;9.50;99.90;;;;;;5039375;28;20502;-63
2022/06/02 05:49:18;;;;;;;23.00;19.93;;;9.60;99.90;;;;;;5040449;28;20474;-63
2022/06/02 05:52:00;;;;;;;21.13;18.93;;;9.50;99.90;;;;;;5030054;28;20896;-63
2022/06/02 05:54:41;;;;;;;22.40;20.30;;;9.80;99.90;;;;;;5003739;28;20469;-62
2022/06/02 05:57:25;;;;;;;22.93;20.43;;;10.00;99.90;;;;;;5025561;28;20868;-63
2022/06/02 06:00:03;;;;;;;24.80;22.33;;;10.40;99.90;;;;;;5039460;28;20820;-63
2022/06/02 06:03:08;;;;;;;25.00;22.60;;;10.90;99.90;;;;;;5035673;28;20760;-63
2022/06/02 06:05:42;;;;;;;24.70;21.77;;;11.30;99.90;;;;;;5027165;28;20477;-63
2022/06/02 06:08:29;;;;;;;23.90;20.70;;;11.70;99.90;;;;;;5033791;28;20922;-63
2022/06/02 06:11:09;;;;;;;25.43;22.80;;;11.90;99.90;;;;;;5040068;28;20458;-63
2022/06/02 06:14:08;;;;;;;25.87;21.33;;;12.20;99.90;;;;;;5021894;28;20551;-63
2022/06/02 06:16:40;;;;;;;26.27;23.57;;;12.30;99.90;;;;;;5019613;28;20492;-64
2022/06/02 06:19:29;;;;;;;26.60;23.80;;;12.50;99.90;;;;;;5015742;28;20460;-64
2022/06/02 06:22:07;;;;;;;28.00;23.70;;;13.00;99.90;;;;;;5016014;28;20482;-64
2022/06/02 06:25:00;;;;;;;27.83;23.60;;;13.40;99.90;;;;;;5013168;28;20495;-64
2022/06/02 06:27:35;;;;;;;26.27;23.57;;;13.70;99.90;;;;;;5001336;28;20476;-65
2022/06/02 06:30:10;;;;;;;26.00;23.40;;;14.00;99.90;;;;;;5019272;28;20502;-65
2022/06/02 06:32:46;;;;;;;27.30;24.60;;;14.20;99.90;;;;;;5018695;28;20465;-66
2022/06/02 06:35:24;;;;;;;26.40;23.60;;;14.30;99.90;;;;;;5016746;28;20483;-66
2022/06/02 06:38:18;;;;;;;28.90;25.93;;;14.40;81.30;;;;;;5013908;28;20569;-67
2022/06/02 06:41:01;;;;;;;30.67;27.47;;;14.50;4.10;;;;;;5020477;28;20446;-67
2022/06/02 06:43:47;;;;;;;26.17;23.77;;;14.80;64.70;;;;;;5018058;28;22712;-67
2022/06/02 06:46:23;;;;;;;28.67;25.87;;;15.00;1.00;;;;;;5016933;28;20470;-67
2022/06/02 06:49:02;;;;;;;26.97;24.17;;;15.40;1.00;;;;;;5016740;28;20480;-67
2022/06/02 06:51:41;;;;;;;28.77;25.30;;;15.80;1.00;;;;;;5014280;28;20481;-67
2022/06/02 06:54:22;;;;;;;28.73;25.87;;;16.10;1.00;;;;;;5012424;28;20500;-67
2022/06/02 06:56:57;;;;;;;25.93;23.40;;;16.20;1.00;;;;;;5018331;28;20913;-67
2022/06/02 06:59:39;;;;;;;23.30;21.00;;;16.20;1.00;;;;;;5018818;28;20562;-68
2022/06/02 07:02:20;;;;;;;24.10;21.17;;;16.50;1.00;;;;;;5018881;28;20476;-68
2022/06/02 07:04:56;;;;;;;22.50;20.30;;;16.40;1.00;;;;;;5016498;28;20634;-69
2022/06/02 07:07:39;;;;;;;21.27;19.20;;;16.60;1.00;;;;;;5022861;28;20467;-69
2022/06/02 07:10:14;;;;;;;20.43;18.63;;;16.90;1.00;;;;;;5016304;28;20467;-70
2022/06/02 07:13:02;;;;;;;20.33;18.20;;;16.70;1.00;;;;;;5032094;28;20529;-70
2022/06/02 07:15:55;;;;;;;18.87;17.23;;;16.80;1.00;;;;;;5029914;28;20496;-71
2022/06/02 07:18:37;;;;;;;19.77;17.77;;;17.30;1.00;;;;;;5036953;28;20479;-71
2022/06/02 07:21:19;;;;;;;14.77;13.47;;;17.80;1.00;;;;;;5015239;28;20447;-72
2022/06/02 07:24:06;;;;;;;18.70;17.00;;;17.80;99.90;;;;;;5029395;28;20585;-72
2022/06/02 07:26:48;;;;;;;17.07;15.53;;;18.10;1.00;;;;;;5031240;28;20503;-72
2022/06/02 07:29:29;;;;;;;16.63;15.23;;;18.40;99.90;;;;;;5021642;28;20919;-72
2022/06/02 07:32:25;;;;;;;14.57;13.27;;;18.30;99.90;;;;;;4998872;28;20469;-72
2022/06/02 07:35:33;;;;;;;15.00;13.70;;;18.60;99.90;;;;;;5037707;28;20494;-72
2022/06/02 07:38:08;;;;;;;14.47;13.13;;;18.90;99.90;;;;;;5006721;28;20483;-70
2022/06/02 07:41:01;;;;;;;13.40;12.20;;;19.20;99.90;;;;;;5025973;28;20550;-72
2022/06/02 07:43:54;;;;;;;12.57;11.40;;;19.50;99.90;;;;;;5028731;28;20499;-70
2022/06/02 07:46:49;;;;;;;13.10;11.70;;;19.90;99.90;;;;;;5021093;28;20499;-71
2022/06/02 07:49:41;;;;;;;11.30;10.30;;;19.80;99.90;;;;;;5036028;28;20814;-68
2022/06/02 07:52:18;;;;;;;9.90;9.00;;;20.10;99.90;;;;;;5019397;28;20478;-70
2022/06/02 07:54:53;;;;;;;12.33;11.13;;;20.30;99.90;;;;;;5030227;28;20554;-70
2022/06/02 07:57:31;;;;;;;11.60;10.60;;;20.50;99.90;;;;;;5021068;28;20959;-68
2022/06/02 08:00:15;;;;;;;9.97;8.97;;;20.70;99.90;;;;;;5020606;28;20537;-67
2022/06/02 08:03:08;;;;;;;9.80;9.00;;;21.00;99.90;;;;;;5023286;28;20471;-65
2022/06/02 08:05:43;;;;;;;9.53;8.83;;;21.10;99.90;;;;;;5013547;28;21019;-67
2022/06/02 08:08:29;;;;;;;9.40;8.70;;;20.70;99.90;;;;;;5017678;28;20475;-66
2022/06/02 08:11:20;;;;;;;9.70;8.90;;;20.80;99.90;;;;;;5006923;28;20935;-66
2022/06/02 08:13:55;;;;;;;8.57;7.87;;;21.10;99.90;;;;;;5029001;28;20587;-66
2022/06/02 08:16:29;;;;;;;10.27;9.50;;;21.50;99.90;;;;;;5019210;28;20940;-64
2022/06/02 08:19:10;;;;;;;10.13;9.43;;;21.60;99.90;;;;;;5017460;28;20460;-64
2022/06/02 08:21:42;;;;;;;9.33;8.50;;;21.30;99.90;;;;;;5017855;28;20554;-64
2022/06/02 08:24:41;;;;;;;9.00;8.30;;;22.30;99.90;;;;;;5036892;28;20506;-65
2022/06/02 08:27:25;;;;;;;9.50;8.70;;;22.70;99.90;;;;;;5006865;28;20555;-64
2022/06/02 08:30:09;;;;;;;8.70;8.10;;;22.30;99.90;;;;;;5009305;28;20512;-63
2022/06/02 08:32:53;;;;;;;8.90;8.20;;;22.10;99.90;;;;;;5007593;28;20520;-64
2022/06/02 08:35:26;;;;;;;10.53;9.83;;;22.60;99.90;;;;;;5010904;28;20468;-64
2022/06/02 08:38:12;;;;;;;11.57;10.60;;;20.10;99.90;;;;;;5025403;28;21584;-64
2022/06/02 08:44:24;;;;;;;11.10;10.00;;;17.50;99.90;;;;;;5016759;28;20440;-64
2022/06/02 08:47:14;;;;;;;10.13;9.43;;;16.80;99.90;;;;;;5009298;28;20529;-62
2022/06/02 08:50:18;;;;;;;9.50;8.70;;;16.60;99.90;;;;;;5037236;28;20463;-61
2022/06/02 08:53:40;;;;;;;10.73;9.83;;;16.20;99.90;;;;;;4989232;28;20462;-61
2022/06/02 08:56:42;;;;;;;11.00;9.27;;;16.80;99.90;;;;;;5025420;28;20513;-62
2022/06/02 08:59:54;;;;;;;10.43;9.53;;;17.20;99.90;;;;;;5037056;28;20799;-61
2022/06/02 09:02:51;;;;;;;9.47;8.70;;;17.70;99.90;;;;;;5037398;28;20499;-61
2022/06/02 09:05:45;;;;;;;8.90;8.20;;;17.10;99.90;;;;;;5036235;28;20541;-61
2022/06/02 09:09:00;;;;;;;8.47;7.67;;;17.30;99.90;;;;;;5037062;28;20470;-61
2022/06/02 09:11:30;;;;;;;7.80;7.20;;;18.00;99.90;;;;;;5037366;28;20498;-61
2022/06/02 09:14:48;;;;;;;7.40;6.80;;;19.50;99.90;;;;;;5036798;28;20769;-63
2022/06/02 09:17:28;;;;;;;7.70;7.10;;;20.50;99.90;;;;;;4967987;28;20465;-63
2022/06/02 09:20:12;;;;;;;6.40;5.80;;;20.50;99.90;;;;;;5027818;28;20509;-63
2022/06/02 09:23:12;;;;;;;6.20;5.70;;;20.20;99.90;;;;;;5029621;28;20460;-64
2022/06/02 09:26:13;;;;;;;6.97;6.47;;;19.90;99.90;;;;;;5016179;28;21031;-62
2022/06/02 09:29:03;;;;;;;6.63;6.13;;;21.20;99.90;;;;;;5021680;28;20494;-61
2022/06/02 09:31:58;;;;;;;5.77;5.27;;;21.80;99.90;;;;;;5025926;28;20491;-62
2022/06/02 09:34:52;;;;;;;6.73;6.17;;;20.70;99.90;;;;;;5030962;28;20581;-64
2022/06/02 09:37:51;;;;;;;6.40;5.97;;;21.10;99.90;;;;;;5028835;28;20495;-64
2022/06/02 09:40:48;;;;;;;6.30;5.70;;;22.70;99.90;;;;;;5001260;28;20766;-63
2022/06/02 09:43:42;;;;;;;6.47;5.87;;;23.60;99.90;;;;;;5016349;28;20458;-63
2022/06/02 09:46:36;;;;;;;6.50;5.90;;;24.50;99.90;;;;;;5025782;28;21008;-64
2022/06/02 09:49:30;;;;;;;5.93;5.53;;;24.90;99.90;;;;;;5010864;28;20475;-64
2022/06/02 09:52:03;;;;;;;6.43;5.80;;;24.60;99.90;;;;;;5023947;28;20468;-64
2022/06/02 09:54:56;;;;;;;6.13;5.63;;;25.00;99.90;;;;;;5033820;28;20470;-62
2022/06/02 09:57:58;;;;;;;7.77;6.17;;;24.30;99.90;;;;;;5023487;28;20467;-61
2022/06/02 10:00:53;;;;;;;6.00;5.60;;;24.10;99.90;;;;;;5023386;28;20481;-61
2022/06/02 10:03:49;;;;;;;5.27;4.87;;;24.50;99.90;;;;;;5022069;28;20529;-61
2022/06/02 10:07:07;;;;;;;5.40;5.00;;;25.00;99.90;;;;;;5008795;28;20593;-61
2022/06/02 10:09:50;;;;;;;5.77;5.27;;;25.50;99.90;;;;;;5022150;28;20492;-61
2022/06/02 10:15:48;;;;;;;5.83;5.43;;;24.90;99.90;;;;;;5000826;28;20459;-62
2022/06/02 10:18:43;;;;;;;4.80;4.50;;;24.70;99.90;;;;;;5035242;28;20482;-62
2022/06/02 10:21:19;;;;;;;5.03;4.63;;;25.30;99.90;;;;;;5032640;28;20478;-61
2022/06/02 10:24:16;;;;;;;5.53;5.13;;;26.00;99.90;;;;;;5026212;28;20836;-61
2022/06/02 10:27:03;;;;;;;5.87;5.37;;;25.80;99.90;;;;;;5020848;28;20543;-61
2022/06/02 10:30:11;;;;;;;4.90;4.60;;;24.30;99.90;;;;;;5027624;28;20466;-61
2022/06/02 10:33:13;;;;;;;5.27;4.87;;;25.20;99.90;;;;;;5033699;28;20492;-61
2022/06/02 10:36:28;;;;;;;5.63;5.00;;;25.70;99.90;;;;;;5034509;28;20486;-60
2022/06/02 10:39:13;;;;;;;4.83;4.43;;;23.30;99.90;;;;;;4942698;28;20459;-61
2022/06/02 10:42:12;;;;;;;4.63;4.33;;;22.80;99.90;;;;;;5034526;28;20517;-61
2022/06/02 10:45:13;;;;;;;4.77;4.27;;;23.50;99.90;;;;;;5015387;28;20491;-61
2022/06/02 10:48:11;;;;;;;4.10;3.73;;;24.90;99.90;;;;;;5018549;28;20479;-61
2022/06/02 10:51:01;;;;;;;4.00;3.80;;;24.90;99.90;;;;;;5016294;28;20491;-61
2022/06/02 10:54:01;;;;;;;4.60;4.27;;;23.70;99.90;;;;;;5010131;28;20484;-61
2022/06/02 10:56:57;;;;;;;4.20;3.90;;;21.50;99.90;;;;;;5016542;28;20499;-61
2022/06/02 11:00:00;;;;;;;4.27;4.00;;;21.90;99.90;;;;;;5010546;28;20476;-62
2022/06/02 11:03:21;;;;;;;3.53;3.30;;;23.70;99.90;;;;;;5015940;28;20491;-61
2022/06/02 11:06:25;;;;;;;4.70;4.40;;;24.00;99.90;;;;;;4970350;28;20556;-61
2022/06/02 11:09:21;;;;;;;3.63;3.43;;;25.20;99.90;;;;;;4964470;28;20511;-61
2022/06/02 11:12:09;;;;;;;4.07;3.77;;;26.10;99.90;;;;;;5006703;28;20515;-61
2022/06/02 11:15:24;;;;;;;3.87;3.67;;;26.10;99.90;;;;;;5009920;28;21748;-61
2022/06/02 11:18:31;;;;;;;3.70;3.43;;;25.70;99.90;;;;;;4986834;28;20946;-61
2022/06/02 11:21:35;;;;;;;4.47;4.07;;;24.50;99.90;;;;;;5015270;28;20504;-61
2022/06/02 11:24:24;;;;;;;4.33;3.97;;;23.90;99.90;;;;;;5017550;28;20441;-60
2022/06/02 11:27:50;;;;;;;4.87;3.40;;;22.50;99.90;;;;;;5016405;28;20499;-62
2022/06/02 11:30:41;;;;;;;4.23;3.83;;;23.70;99.90;;;;;;4924929;28;20920;-61
2022/06/02 11:33:39;;;;;;;4.97;4.50;;;23.50;99.90;;;;;;4962262;28;20482;-63
2022/06/02 11:36:25;;;;;;;3.23;3.03;;;22.20;99.90;;;;;;4920795;28;20996;-61
2022/06/02 11:39:18;;;;;;;4.10;3.80;;;22.60;99.90;;;;;;4992740;28;20551;-61
2022/06/02 11:41:51;;;;;;;4.00;3.70;;;22.40;99.90;;;;;;4995759;28;20467;-61
2022/06/02 11:44:32;;;;;;;4.10;3.90;;;23.00;99.90;;;;;;5017968;28;20550;-61
2022/06/02 11:47:24;;;;;;;4.47;4.17;;;23.90;99.90;;;;;;5004310;28;20914;-62
2022/06/02 11:50:17;;;;;;;4.50;4.20;;;22.80;99.90;;;;;;5017619;28;20492;-61
2022/06/02 11:53:32;;;;;;;4.30;4.00;;;21.70;99.90;;;;;;5013379;28;20506;-62
2022/06/02 11:56:11;;;;;;;4.37;4.07;;;21.90;99.90;;;;;;5014641;28;20484;-62
2022/06/02 11:59:24;;;;;;;3.90;3.60;;;22.20;99.90;;;;;;5014241;28;20583;-61
2022/06/02 12:02:13;;;;;;;6.10;5.20;;;23.00;99.90;;;;;;5009678;28;20518;-61
2022/06/02 12:05:24;;;;;;;4.33;4.03;;;25.00;99.90;;;;;;5004102;28;20488;-62
2022/06/02 12:08:28;;;;;;;3.90;3.60;;;25.80;99.90;;;;;;5014897;28;20547;-61
2022/06/02 12:11:23;;;;;;;5.40;4.90;;;26.40;99.90;;;;;;5018143;28;20463;-62
2022/06/02 12:14:12;;;;;;;3.37;3.17;;;26.90;99.90;;;;;;5003819;28;20501;-62
2022/06/02 12:16:48;;;;;;;4.80;4.40;;;27.00;99.90;;;;;;5016804;28;20460;-62
2022/06/02 12:19:42;;;;;;;4.10;3.70;;;27.00;99.90;;;;;;5001461;28;20546;-62
2022/06/02 12:22:26;;;;;;;2.90;2.70;;;27.40;99.90;;;;;;4983371;28;20558;-61
2022/06/02 12:25:16;;;;;;;3.47;3.27;;;25.50;99.90;;;;;;5007553;28;20559;-61
2022/06/02 12:28:11;;;;;;;3.83;3.60;;;26.10;99.90;;;;;;4994656;28;20504;-62
2022/06/02 12:30:52;;;;;;;4.03;3.73;;;26.00;99.90;;;;;;5013668;28;20560;-62
2022/06/02 12:33:53;;;;;;;3.20;3.00;;;24.90;99.90;;;;;;5021359;28;20562;-62
2022/06/02 12:36:55;;;;;;;3.63;3.30;;;25.60;99.90;;;;;;5017587;28;20543;-62
2022/06/02 12:40:03;;;;;;;3.27;3.07;;;24.50;99.90;;;;;;5036948;28;20463;-62
2022/06/02 12:43:04;;;;;;;3.80;3.50;;;25.80;99.90;;;;;;5037561;28;20454;-61
2022/06/02 12:46:12;;;;;;;4.00;3.70;;;26.50;99.90;;;;;;5015611;28;20587;-62
2022/06/02 12:49:02;;;;;;;4.17;3.90;;;25.60;99.90;;;;;;5007819;28;20471;-62
2022/06/02 12:51:55;;;;;;;4.77;4.47;;;24.70;99.90;;;;;;5036772;28;20834;-61
2022/06/02 12:55:02;;;;;;;3.70;3.40;;;23.50;99.90;;;;;;5034599;28;20552;-61
2022/06/02 12:58:34;;;;;;;3.40;3.20;;;25.10;99.90;;;;;;5033839;28;20850;-62
2022/06/02 13:01:15;;;;;;;3.77;3.47;;;25.10;99.90;;;;;;4989964;28;20463;-61
2022/06/02 13:04:34;;;;;;;4.53;4.20;;;26.20;99.90;;;;;;5037165;28;20864;-61
2022/06/02 13:07:34;;;;;;;3.87;3.23;;;26.40;99.90;;;;;;5031018;28;20553;-61
2022/06/02 13:10:29;;;;;;;3.70;3.50;;;24.70;99.90;;;;;;5027756;28;20865;-61
2022/06/02 13:13:50;;;;;;;3.43;3.23;;;25.70;99.90;;;;;;5006559;28;20591;-61
2022/06/02 13:16:56;;;;;;;3.53;3.30;;;26.60;99.90;;;;;;5012024;28;20563;-61
2022/06/02 13:19:46;;;;;;;4.20;3.90;;;25.00;99.90;;;;;;5029452;28;20556;-61
2022/06/02 13:22:43;;;;;;;4.10;3.80;;;25.60;99.90;;;;;;5033012;28;20475;-60
2022/06/02 13:25:47;;;;;;;2.90;2.70;;;26.20;99.90;;;;;;5035040;28;20459;-61
2022/06/02 13:28:52;;;;;;;3.47;3.17;;;26.50;99.90;;;;;;5012824;28;20902;-59
2022/06/02 13:31:44;;;;;;;2.97;2.60;;;26.70;99.90;;;;;;4966049;28;20470;-61
2022/06/02 13:35:02;;;;;;;3.80;3.50;;;26.80;99.90;;;;;;4995171;28;20548;-62
2022/06/02 13:38:04;;;;;;;3.60;3.30;;;26.80;99.90;;;;;;5016739;28;20495;-61
2022/06/02 13:40:45;;;;;;;4.13;3.67;;;26.10;99.90;;;;;;5034704;28;20864;-61
2022/06/02 13:43:44;;;;;;;4.37;4.07;;;25.40;99.90;;;;;;5007835;28;20472;-61
2022/06/02 13:46:49;;;;;;;3.37;3.17;;;24.50;99.90;;;;;;5030339;28;20526;-62
2022/06/02 13:49:49;;;;;;;3.93;3.63;;;24.90;99.90;;;;;;4987934;28;20475;-60
2022/06/02 13:52:53;;;;;;;4.57;4.17;;;25.50;99.90;;;;;;5012503;28;20910;-61
2022/06/02 13:58:44;;;;;;;4.07;3.77;;;25.70;99.90;;;;;;5015397;28;20452;-61
2022/06/02 14:01:34;;;;;;;4.60;4.20;;;25.60;99.90;;;;;;5031666;28;20498;-61
2022/06/02 14:04:32;;;;;;;4.47;4.17;;;25.40;99.90;;;;;;5032314;28;20460;-61
2022/06/02 14:07:16;;;;;;;3.73;3.53;;;25.40;99.90;;;;;;5039474;28;20523;-61
2022/06/02 14:09:55;;;;;;;4.00;3.60;;;25.30;99.90;;;;;;5026365;28;20514;-61
2022/06/02 14:12:39;;;;;;;3.80;3.47;;;25.20;99.90;;;;;;5034163;28;20522;-61
2022/06/02 14:15:26;;;;;;;3.90;3.50;;;25.20;99.90;;;;;;5030020;28;20498;-61
2022/06/02 14:18:08;;;;;;;3.80;3.60;;;25.50;99.90;;;;;;5022219;28;20506;-60
2022/06/02 14:20:49;;;;;;;3.90;3.60;;;25.70;99.90;;;;;;5020341;28;20765;-61
2022/06/02 14:23:31;;;;;;;4.50;4.10;;;25.40;99.90;;;;;;5036942;28;20491;-61
2022/06/02 14:26:12;;;;;;;4.17;3.67;;;25.30;99.90;;;;;;5037325;28;20589;-61
2022/06/02 14:28:58;;;;;;;3.70;3.40;;;24.90;99.90;;;;;;5018261;28;20481;-61
2022/06/02 14:31:38;;;;;;;4.30;3.90;;;24.80;99.90;;;;;;5029749;28;20522;-61
2022/06/02 14:34:22;;;;;;;3.93;3.63;;;24.10;99.90;;;;;;5034893;28;20510;-61
2022/06/02 14:36:56;;;;;;;4.17;3.93;;;24.90;99.90;;;;;;5018905;28;20459;-62
2022/06/02 14:39:40;;;;;;;4.20;3.93;;;25.60;99.90;;;;;;5029008;28;20887;-62
2022/06/02 14:43:04;;;;;;;3.70;3.47;;;25.80;99.90;;;;;;5030329;28;20526;-62